Time;durP1;ratioP1;P1;durP2;ratioP2;P2;SDS_P1;SDS_P2;PMS_P1;PMS_P2;Temp;Humidity;BMP_temperature;BMP_pressure;BME280_temperature;BME280_humidity;BME280_pressure;Samples;Min_cycle;Max_cycle;Signal;HPM_P1;HPM_P2
2022/12/18 00:01:37;;;;;;;12.25;9.65;;;;;;;-3.76;93.04;146400.59;5038240;28;20033;-62
2022/12/18 00:04:07;;;;;;;14.27;10.60;;;;;;;-3.93;91.85;146360.09;5024082;28;20045;-62
2022/12/18 00:06:34;;;;;;;13.15;9.77;;;;;;;-3.77;92.16;146399.34;5042981;28;20026;-62
2022/12/18 00:09:01;;;;;;;14.80;10.55;;;;;;;-3.70;92.16;146415.84;5026969;28;20060;-62
2022/12/18 00:11:28;;;;;;;11.50;9.32;;;;;;;-3.84;90.98;146381.63;5037194;28;20052;-62
2022/12/18 00:13:57;;;;;;;11.77;9.27;;;;;;;-3.90;90.87;146366.44;5036024;28;20107;-62
2022/12/18 00:16:25;;;;;;;13.55;9.95;;;;;;;-3.85;91.33;146379.06;5026555;28;20049;-64
2022/12/18 00:18:53;;;;;;;13.55;9.93;;;;;;;-4.03;91.45;146336.00;5043089;28;20048;-63
2022/12/18 00:21:20;;;;;;;13.27;9.48;;;;;;;-3.92;91.72;146361.34;5024148;28;20037;-63
2022/12/18 00:23:48;;;;;;;14.18;10.23;;;;;;;-3.87;91.36;146374.03;5034892;28;20029;-63
2022/12/18 00:26:22;;;;;;;13.13;9.63;;;;;;;-3.97;91.62;146348.69;5033171;28;20021;-63
2022/12/18 00:28:48;;;;;;;11.82;9.48;;;;;;;-3.81;91.01;146390.47;5029535;28;20634;-64
2022/12/18 00:31:17;;;;;;;11.80;9.50;;;;;;;-3.91;90.85;146365.13;5041015;28;20032;-62
2022/12/18 00:33:42;;;;;;;13.88;9.93;;;;;;;-3.86;90.58;146377.81;5023351;28;20326;-63
2022/12/18 00:36:29;;;;;;;16.30;9.35;;;;;;;-4.01;89.48;146339.81;5040368;28;20087;-63
2022/12/18 00:38:56;;;;;;;12.10;9.48;;;;;;;-3.85;90.26;146380.38;5027467;28;20310;-62
2022/12/18 00:44:09;;;;;;;11.60;9.13;;;;;;;-3.82;90.60;146387.97;5042954;28;20033;-62
2022/12/18 00:46:35;;;;;;;10.88;8.57;;;;;;;-3.91;90.63;146363.88;5038244;28;20092;-63
2022/12/18 00:49:00;;;;;;;11.35;9.07;;;;;;;-3.81;89.54;146389.22;5023159;28;20042;-63
2022/12/18 00:51:27;;;;;;;12.43;9.50;;;;;;;-3.91;89.13;146363.88;5042455;28;20067;-63
2022/12/18 00:53:53;;;;;;;13.10;9.77;;;;;;;-3.87;90.31;146374.03;5027766;28;20307;-63
2022/12/18 00:56:18;;;;;;;11.20;8.52;;;;;;;-4.01;89.52;146341.06;5034545;28;20040;-63
2022/12/18 00:58:44;;;;;;;12.05;8.88;;;;;;;-3.96;90.52;146351.19;5037035;28;20108;-62
2022/12/18 01:01:29;;;;;;;12.43;9.65;;;;;;;-3.84;89.86;146382.88;5026276;28;20030;-63
2022/12/18 01:03:55;;;;;;;10.93;8.40;;;;;;;-3.94;89.60;146357.53;5023019;28;20041;-64
2022/12/18 01:06:20;;;;;;;11.20;8.90;;;;;;;-3.87;88.99;146374.03;5022991;28;20025;-62
2022/12/18 01:08:46;;;;;;;12.02;8.65;;;;;;;-3.85;89.21;146379.06;5040730;28;20210;-62
2022/12/18 01:11:18;;;;;;;11.15;9.27;;;;;;;-4.02;90.05;146337.25;5036958;28;20038;-61
2022/12/18 01:13:44;;;;;;;11.30;8.55;;;;;;;-3.92;89.83;146362.63;5031843;28;20313;-61
2022/12/18 01:16:13;;;;;;;11.88;8.93;;;;;;;-4.22;88.84;146289.16;5044578;28;20099;-63
2022/12/18 01:18:38;;;;;;;11.30;8.82;;;;;;;-3.94;90.08;146356.28;5026431;28;20364;-62
2022/12/18 01:21:15;;;;;;;10.63;8.30;;;;;;;-3.97;89.58;146348.69;5042770;28;20033;-62
2022/12/18 01:23:41;;;;;;;11.25;8.57;;;;;;;-3.76;89.22;146401.91;5041409;28;20021;-62
2022/12/18 01:26:10;;;;;;;11.57;9.02;;;;;;;-3.83;88.51;146384.16;5037930;28;20064;-61
2022/12/18 01:28:36;;;;;;;11.70;9.00;;;;;;;-3.92;88.40;146362.63;5029299;28;20029;-62
2022/12/18 01:31:15;;;;;;;11.40;8.98;;;;;;;-3.97;88.26;146349.94;5046260;28;20030;-63
2022/12/18 01:33:41;;;;;;;9.98;8.40;;;;;;;-3.90;88.40;146367.69;5026246;28;20034;-63
2022/12/18 01:36:07;;;;;;;10.93;8.73;;;;;;;-3.85;88.20;146380.38;5042885;28;20032;-63
2022/12/18 01:38:32;;;;;;;12.07;8.18;;;;;;;-3.77;88.32;146398.09;5045829;28;20029;-63
2022/12/18 01:40:59;;;;;;;10.30;8.27;;;;;;;-3.81;87.84;146390.47;5046126;28;20028;-62
2022/12/18 01:43:53;;;;;;;9.85;7.80;;;;;;;-3.95;88.31;146353.75;5043435;28;20029;-63
2022/12/18 01:46:21;;;;;;;9.98;7.97;;;;;;;-3.96;87.03;146351.19;5038887;28;20029;-62
2022/12/18 01:48:50;;;;;;;12.80;9.15;;;;;;;-4.08;88.60;146323.31;5027472;28;20038;-62
2022/12/18 01:51:17;;;;;;;11.32;8.90;;;;;;;-3.75;87.58;146404.41;5027978;28;20318;-62
2022/12/18 01:53:44;;;;;;;9.45;7.40;;;;;;;-3.88;87.41;146372.72;5025647;28;20097;-62
2022/12/18 01:56:14;;;;;;;11.90;8.52;;;;;;;-3.93;87.89;146358.78;5036084;28;20026;-62
2022/12/18 01:58:50;;;;;;;9.30;7.78;;;;;;;-3.70;87.66;146415.84;5041119;28;20038;-61
2022/12/18 02:01:16;;;;;;;11.57;8.18;;;;;;;-3.90;86.57;146366.44;5026927;28;20029;-61
2022/12/18 02:03:43;;;;;;;9.75;8.10;;;;;;;-4.12;88.17;146313.19;5045417;28;20092;-61
2022/12/18 02:06:16;;;;;;;10.95;8.05;;;;;;;-3.85;88.98;146379.06;5028929;28;20222;-62
2022/12/18 02:08:42;;;;;;;9.70;7.53;;;;;;;-4.02;87.46;146338.56;5036888;28;20043;-62
2022/12/18 02:11:10;;;;;;;9.95;7.97;;;;;;;-3.99;88.46;146344.84;5036608;28;20053;-61
2022/12/18 02:13:46;;;;;;;8.60;7.57;;;;;;;-4.10;88.35;146318.28;5029487;28;20064;-62
2022/12/18 02:16:37;;;;;;;10.18;7.82;;;;;;;-4.06;88.60;146327.13;5041200;28;20259;-62
2022/12/18 02:19:20;;;;;;;9.35;7.70;;;;;;;-4.20;88.12;146294.22;5037921;28;20317;-62
2022/12/18 02:22:02;;;;;;;10.57;8.20;;;;;;;-3.95;88.74;146355.00;5027404;28;20030;-62
2022/12/18 02:24:47;;;;;;;10.73;7.72;;;;;;;-4.11;88.56;146315.72;5045173;28;20030;-63
2022/12/18 02:27:13;;;;;;;11.45;7.95;;;;;;;-3.81;88.45;146389.22;5028367;28;20214;-64
2022/12/18 02:29:46;;;;;;;10.30;7.88;;;;;;;-3.92;88.61;146361.34;5037530;28;20053;-63
2022/12/18 02:32:17;;;;;;;9.50;7.35;;;;;;;-3.89;87.56;146368.94;5035609;28;20018;-63
2022/12/18 02:34:44;;;;;;;10.88;8.48;;;;;;;-3.79;88.03;146394.31;5033747;28;20104;-63
2022/12/18 02:37:13;;;;;;;9.70;7.38;;;;;;;-3.80;87.29;146391.75;5045200;28;20313;-63
2022/12/18 02:39:43;;;;;;;9.60;8.00;;;;;;;-3.68;88.03;146422.19;5025350;28;20218;-63
2022/12/18 02:42:09;;;;;;;11.23;8.43;;;;;;;-3.70;87.06;146417.09;5040232;28;20079;-63
2022/12/18 02:44:43;;;;;;;9.57;7.22;;;;;;;-3.98;86.98;146347.41;5033035;28;20326;-64
2022/12/18 02:47:13;;;;;;;9.90;7.43;;;;;;;-3.82;87.79;146386.66;5032900;28;20290;-62
2022/12/18 02:50:05;;;;;;;9.90;7.80;;;;;;;-3.73;86.68;146409.50;5040609;28;20033;-62
2022/12/18 02:52:55;;;;;;;;;;;;;;;-3.55;87.72;146453.88;5037527;28;20040;-62
2022/12/18 02:55:29;;;;;;;8.98;7.45;;;;;;;-3.65;85.86;146428.47;5044869;28;19905;-62
2022/12/18 02:58:10;;;;;;;9.70;7.35;;;;;;;-3.69;86.69;146418.34;5044661;28;20132;-62
2022/12/18 03:00:52;;;;;;;9.23;6.88;;;;;;;-4.19;86.86;146295.47;5029572;28;20071;-62
2022/12/18 03:03:24;;;;;;;9.27;7.90;;;;;;;-4.02;87.69;146337.25;5026662;28;20025;-62
2022/12/18 03:05:59;;;;;;;9.35;7.38;;;;;;;-3.93;87.14;146360.09;5037904;28;20037;-62
2022/12/18 03:08:28;;;;;;;8.98;7.45;;;;;;;-4.09;87.17;146320.81;5039172;28;20070;-62
2022/12/18 03:11:01;;;;;;;10.82;7.50;;;;;;;-4.13;86.67;146310.69;5044348;28;20026;-62
2022/12/18 03:13:34;;;;;;;8.68;7.35;;;;;;;-4.00;87.20;146342.34;5026527;28;20029;-62
2022/12/18 03:16:03;;;;;;;8.00;7.03;;;;;;;-4.11;86.44;146315.72;5044537;28;20128;-62
2022/12/18 03:18:37;;;;;;;9.30;7.53;;;;;;;-4.17;87.98;146301.78;5024669;28;20038;-62
2022/12/18 03:21:05;;;;;;;8.35;7.03;;;;;;;-4.08;86.94;146323.31;5039595;28;20101;-61
2022/12/18 03:23:39;;;;;;;8.75;7.35;;;;;;;-4.03;87.94;146336.00;5038174;28;20214;-62
2022/12/18 03:26:10;;;;;;;10.18;8.23;;;;;;;-4.01;86.56;146341.06;5036999;28;20030;-62
2022/12/18 03:28:42;;;;;;;10.07;7.60;;;;;;;-4.00;86.29;146342.34;5027243;28;20096;-62
2022/12/18 03:31:12;;;;;;;10.30;7.72;;;;;;;-3.95;87.20;146355.00;5043803;28;20026;-62
2022/12/18 03:33:46;;;;;;;10.40;7.93;;;;;;;-4.30;87.02;146268.88;5044101;28;20025;-62
2022/12/18 03:36:11;;;;;;;9.75;7.70;;;;;;;-4.03;86.12;146336.00;5028215;28;20026;-63
2022/12/18 03:38:37;;;;;;;9.07;7.30;;;;;;;-4.15;87.80;146305.59;5035095;28;20052;-62
2022/12/18 03:41:27;;;;;;;9.05;7.25;;;;;;;-4.08;88.10;146322.06;5037007;28;20076;-61
2022/12/18 03:44:44;;;;;;;8.52;7.07;;;;;;;-4.06;87.75;146327.13;5029265;28;20040;-62
2022/12/18 03:47:19;;;;;;;10.43;7.57;;;;;;;-4.02;87.03;146338.56;5045862;28;20038;-61
2022/12/18 03:49:56;;;;;;;10.23;7.75;;;;;;;-4.08;87.23;146322.06;5027781;28;20021;-63
2022/12/18 03:52:35;;;;;;;9.43;7.38;;;;;;;-4.12;86.80;146313.19;5042813;28;20132;-62
2022/12/18 03:55:03;;;;;;;10.80;8.18;;;;;;;-4.09;87.85;146320.81;5024413;28;20061;-62
2022/12/18 03:57:31;;;;;;;8.88;7.38;;;;;;;-4.22;86.47;146287.88;5043607;28;20041;-61
2022/12/18 04:00:02;;;;;;;10.90;8.40;;;;;;;-4.11;86.73;146315.72;5029547;28;20036;-61
2022/12/18 04:02:30;;;;;;;10.95;8.05;;;;;;;-4.17;87.09;146301.78;5033468;28;20029;-62
2022/12/18 04:05:01;;;;;;;10.25;7.80;;;;;;;-4.05;86.74;146330.91;5037802;28;20030;-62
2022/12/18 04:07:28;;;;;;;9.07;6.90;;;;;;;-4.31;86.64;146265.09;5025300;28;20024;-62
2022/12/18 04:09:58;;;;;;;9.52;7.30;;;;;;;-4.36;87.68;146254.94;5042130;28;20060;-63
2022/12/18 04:12:29;;;;;;;10.65;7.50;;;;;;;-4.37;86.70;146252.41;5025446;28;20044;-62
2022/12/18 04:14:55;;;;;;;9.32;7.20;;;;;;;-4.21;87.67;146291.66;5036666;28;20271;-62
2022/12/18 04:17:21;;;;;;;8.40;6.70;;;;;;;-4.16;87.95;146304.34;5043345;28;20040;-62
2022/12/18 04:19:46;;;;;;;10.32;7.78;;;;;;;-4.10;86.15;146317.03;5038545;28;20315;-62
2022/12/18 04:22:12;;;;;;;7.88;6.80;;;;;;;-4.22;86.50;146289.16;5029087;28;20049;-62
2022/12/18 04:24:38;;;;;;;9.13;6.88;;;;;;;-4.22;86.90;146287.88;5023548;28;20053;-62
2022/12/18 04:27:04;;;;;;;8.68;7.45;;;;;;;-4.41;87.03;146241.03;5030498;28;20036;-63
2022/12/18 04:29:29;;;;;;;9.73;7.68;;;;;;;-4.34;87.93;146260.00;5042996;28;20033;-62
2022/12/18 04:31:55;;;;;;;9.07;7.05;;;;;;;-4.22;87.26;146289.16;5037878;28;20036;-62
2022/12/18 04:34:21;;;;;;;12.07;7.97;;;;;;;-4.22;86.77;146289.16;5026065;28;20049;-61
2022/12/18 04:36:46;;;;;;;11.63;9.68;;;;;;;-4.16;86.76;146304.34;5031847;28;20234;-62
2022/12/18 04:39:12;;;;;;;9.82;7.63;;;;;;;-4.01;86.51;146339.81;5039001;28;20029;-62
2022/12/18 04:41:38;;;;;;;7.63;6.57;;;;;;;-4.23;85.71;146285.31;5034354;28;20033;-62
2022/12/18 04:44:04;;;;;;;9.57;7.93;;;;;;;-4.20;86.57;146292.97;5034874;28;20063;-61
2022/12/18 04:46:29;;;;;;;11.10;8.20;;;;;;;-4.09;86.61;146320.81;5048114;28;20037;-61
2022/12/18 04:48:55;;;;;;;11.45;7.15;;;;;;;-4.23;86.03;146286.63;5029989;28;20199;-61
2022/12/18 04:51:21;;;;;;;10.27;7.20;;;;;;;-4.07;86.68;146325.88;5046220;28;20037;-61
2022/12/18 04:53:46;;;;;;;9.30;7.53;;;;;;;-4.13;87.53;146309.38;5047388;28;20111;-62
2022/12/18 04:56:15;;;;;;;8.75;6.97;;;;;;;-4.22;87.12;146289.16;5049449;28;20038;-61
2022/12/18 04:58:42;;;;;;;10.50;7.55;;;;;;;-4.25;87.85;146280.28;5046196;28;20029;-62
2022/12/18 05:01:09;;;;;;;8.77;7.43;;;;;;;-4.12;88.31;146313.19;5033387;28;20063;-61
2022/12/18 05:03:36;;;;;;;9.38;7.57;;;;;;;-4.16;87.90;146303.09;5030546;28;20089;-61
2022/12/18 05:06:02;;;;;;;13.68;7.07;;;;;;;-4.31;87.48;146265.09;5047006;28;20037;-61
2022/12/18 05:08:28;;;;;;;8.50;6.93;;;;;;;-4.36;88.22;146253.66;5038533;28;20455;-62
2022/12/18 05:11:04;;;;;;;10.10;7.25;;;;;;;-4.45;88.20;146232.13;5032735;28;20093;-62
2022/12/18 05:13:31;;;;;;;11.35;7.60;;;;;;;-4.32;89.28;146263.78;5030736;28;20025;-62
2022/12/18 05:15:57;;;;;;;8.63;6.95;;;;;;;-4.59;89.10;146196.69;5049064;28;20296;-63
2022/12/18 05:18:24;;;;;;;10.70;7.30;;;;;;;-4.66;89.36;146178.97;5049213;28;20061;-62
2022/12/18 05:20:51;;;;;;;10.32;6.93;;;;;;;-4.75;88.91;146157.44;5036836;28;20045;-63
2022/12/18 05:23:16;;;;;;;9.40;6.70;;;;;;;-4.61;89.36;146192.88;5043000;28;20020;-63
2022/12/18 05:25:42;;;;;;;9.85;7.45;;;;;;;-4.58;88.61;146199.22;5048754;28;20025;-61
2022/12/18 05:28:08;;;;;;;10.82;7.10;;;;;;;-4.48;89.38;146223.28;5049123;28;20067;-62
2022/12/18 05:30:33;;;;;;;9.20;6.88;;;;;;;-4.72;89.38;146166.34;5030977;28;20179;-62
2022/12/18 05:33:19;;;;;;;8.90;7.18;;;;;;;-4.54;88.39;146210.63;5042796;28;20029;-62
2022/12/18 05:36:00;;;;;;;8.10;6.80;;;;;;;-4.54;88.13;146209.38;5037349;28;20063;-63
2022/12/18 05:38:26;;;;;;;9.55;7.38;;;;;;;-4.34;88.01;146260.00;5037876;28;20372;-61
2022/12/18 05:40:53;;;;;;;9.35;6.82;;;;;;;-4.51;87.43;146218.19;5049015;28;20072;-62
2022/12/18 05:43:21;;;;;;;7.55;6.53;;;;;;;-4.48;87.34;146223.28;5049108;28;20036;-62
2022/12/18 05:45:47;;;;;;;8.02;6.82;;;;;;;-4.49;86.54;146220.75;5047679;28;20055;-62
2022/12/18 05:48:13;;;;;;;9.05;7.47;;;;;;;-4.50;86.86;146219.50;5049146;28;20049;-62
2022/12/18 05:50:40;;;;;;;10.18;6.65;;;;;;;-4.46;87.08;146228.34;5038140;28;20038;-61
2022/12/18 05:53:06;;;;;;;8.60;6.65;;;;;;;-4.57;87.46;146203.03;5033782;28;20025;-61
2022/12/18 05:55:37;;;;;;;8.77;6.38;;;;;;;-4.42;85.87;146239.72;5045819;28;20070;-63
2022/12/18 05:58:04;;;;;;;9.07;7.00;;;;;;;-4.49;86.39;146220.75;5045878;28;20380;-62
2022/12/18 06:00:31;;;;;;;8.40;6.60;;;;;;;-4.43;86.53;146237.22;5045488;28;20025;-62
2022/12/18 06:02:57;;;;;;;8.50;6.88;;;;;;;-4.45;86.30;146230.88;5028209;28;20034;-62
2022/12/18 06:05:23;;;;;;;8.75;6.80;;;;;;;-4.60;86.53;146195.44;5033879;28;20031;-62
2022/12/18 06:07:49;;;;;;;9.13;7.10;;;;;;;-4.40;86.89;146244.81;5048542;28;20021;-62
2022/12/18 06:10:14;;;;;;;8.75;6.95;;;;;;;-4.40;86.90;146244.81;5033294;28;20029;-63
2022/12/18 06:12:40;;;;;;;15.75;7.40;;;;;;;-4.43;86.37;146235.94;5026228;28;20037;-62
2022/12/18 06:15:06;;;;;;;8.77;6.60;;;;;;;-4.62;86.34;146189.09;5027389;28;20110;-61
2022/12/18 06:17:32;;;;;;;8.45;7.00;;;;;;;-4.50;85.89;146219.50;5025445;28;20039;-62
2022/12/18 06:19:58;;;;;;;8.98;7.30;;;;;;;-4.41;86.42;146242.28;5036061;28;20079;-62
2022/12/18 06:22:24;;;;;;;9.05;6.97;;;;;;;-4.41;86.67;146241.03;5037819;28;20022;-61
2022/12/18 06:24:50;;;;;;;8.45;6.72;;;;;;;-4.31;85.64;146265.09;5024131;28;20234;-63
2022/12/18 06:27:16;;;;;;;8.23;6.28;;;;;;;-4.24;86.08;146282.81;5039622;28;20025;-63
2022/12/18 06:29:42;;;;;;;8.20;6.65;;;;;;;-4.49;85.82;146222.00;5025198;28;20025;-63
2022/12/18 06:32:08;;;;;;;8.63;6.95;;;;;;;-4.41;86.29;146242.28;5035728;28;20038;-61
2022/12/18 06:34:34;;;;;;;11.25;6.53;;;;;;;-4.54;85.36;146210.63;5025053;28;20029;-62
2022/12/18 06:37:00;;;;;;;8.90;6.53;;;;;;;-4.62;85.71;146189.09;5025185;28;20034;-62
2022/12/18 06:39:28;;;;;;;8.45;6.70;;;;;;;-4.53;86.08;146211.91;5041530;28;20183;-62
2022/12/18 06:41:54;;;;;;;8.02;6.55;;;;;;;-4.52;86.20;146215.69;5032824;28;20101;-63
2022/12/18 06:44:19;;;;;;;10.23;7.55;;;;;;;-4.68;85.46;146175.16;5044119;28;20029;-62
2022/12/18 06:46:45;;;;;;;8.27;6.93;;;;;;;-4.67;86.00;146177.72;5030243;28;20267;-63
2022/12/18 06:49:11;;;;;;;10.60;6.90;;;;;;;-4.40;86.62;146244.81;5025003;28;20313;-63
2022/12/18 06:51:37;;;;;;;10.02;6.78;;;;;;;-4.57;84.58;146201.78;5042360;28;20084;-64
2022/12/18 06:54:02;;;;;;;9.40;7.13;;;;;;;-4.68;85.44;146176.41;5038035;28;20040;-62
2022/12/18 06:56:28;;;;;;;8.68;6.95;;;;;;;-4.75;84.41;146158.69;5029462;28;20093;-62
2022/12/18 06:58:54;;;;;;;8.77;7.25;;;;;;;-4.52;85.62;146215.69;5030722;28;20088;-62
2022/12/18 07:01:20;;;;;;;9.27;7.18;;;;;;;-4.55;84.81;146206.81;5035777;28;20025;-62
2022/12/18 07:03:46;;;;;;;9.70;6.88;;;;;;;-4.50;84.34;146219.50;5039563;28;20356;-61
2022/12/18 07:06:17;;;;;;;8.77;6.60;;;;;;;-4.44;84.52;146234.69;5031792;28;20017;-62
2022/12/18 07:08:44;;;;;;;9.40;7.00;;;;;;;-4.36;84.51;146254.94;5035350;28;20046;-62
2022/12/18 07:11:10;;;;;;;8.27;6.35;;;;;;;-4.30;84.16;146267.59;5024106;28;20026;-63
2022/12/18 07:13:35;;;;;;;7.82;6.25;;;;;;;-4.29;84.02;146271.44;5024280;28;20037;-62
2022/12/18 07:16:30;;;;;;;8.80;6.80;;;;;;;-4.17;82.99;146300.53;5033127;28;20099;-62
2022/12/18 07:18:56;;;;;;;8.77;6.60;;;;;;;-4.13;82.90;146310.69;5046135;28;20310;-62
2022/12/18 07:21:23;;;;;;;9.48;7.00;;;;;;;-4.39;82.76;146247.34;5044147;28;20052;-61
2022/12/18 07:23:49;;;;;;;9.10;7.22;;;;;;;-4.06;83.30;146328.41;5036028;28;20088;-60
2022/12/18 07:26:18;;;;;;;11.18;6.70;;;;;;;-4.19;83.15;146295.47;5037985;28;20026;-62
2022/12/18 07:28:43;;;;;;;8.00;6.47;;;;;;;-4.25;82.23;146281.53;5034515;28;20355;-62
2022/12/18 07:31:18;;;;;;;10.45;7.38;;;;;;;-4.24;82.62;146282.81;5022998;28;20053;-62
2022/12/18 07:33:44;;;;;;;8.45;6.32;;;;;;;-4.22;81.63;146287.88;5026747;28;20068;-62
2022/12/18 07:36:11;;;;;;;8.13;6.50;;;;;;;-4.12;82.45;146311.94;5043189;28;20055;-63
2022/12/18 07:38:37;;;;;;;8.15;6.72;;;;;;;-4.14;81.99;146308.13;5024510;28;20057;-63
2022/12/18 07:41:02;;;;;;;7.85;6.35;;;;;;;-4.16;81.98;146304.34;5028439;28;20040;-62
2022/12/18 07:43:28;;;;;;;9.57;6.88;;;;;;;-3.97;81.95;146349.94;5043535;28;20033;-62
2022/12/18 07:45:54;;;;;;;9.65;6.65;;;;;;;-4.26;82.06;146277.72;5024033;28;20377;-62
2022/12/18 07:48:20;;;;;;;8.38;6.28;;;;;;;-4.15;82.07;146305.59;5038826;28;20080;-61
2022/12/18 07:50:45;;;;;;;10.48;7.68;;;;;;;-4.13;82.31;146309.38;5032860;28;20338;-62
2022/12/18 07:53:11;;;;;;;9.45;7.13;;;;;;;-4.04;81.49;146333.47;5029097;28;20063;-61
2022/12/18 07:55:37;;;;;;;8.23;6.40;;;;;;;-4.05;82.06;146330.91;5043371;28;20048;-61
2022/12/18 07:58:04;;;;;;;9.23;6.57;;;;;;;-3.93;81.41;146360.09;5043413;28;20465;-62
2022/12/18 08:00:30;;;;;;;9.52;7.28;;;;;;;-3.89;82.32;146368.94;5026095;28;20210;-63
2022/12/18 08:02:56;;;;;;;8.95;6.53;;;;;;;-3.95;81.57;146355.00;5034942;28;20092;-62
2022/12/18 08:05:22;;;;;;;9.27;6.18;;;;;;;-3.91;81.54;146363.88;5043500;28;20033;-63
2022/12/18 08:07:48;;;;;;;8.95;6.15;;;;;;;-3.93;81.29;146358.78;5038726;28;20210;-63
2022/12/18 08:10:13;;;;;;;8.75;6.63;;;;;;;-3.93;81.36;146358.78;5029150;28;20101;-64
2022/12/18 08:12:39;;;;;;;9.20;6.90;;;;;;;-4.01;82.32;146341.06;5039153;28;20048;-63
2022/12/18 08:15:05;;;;;;;7.68;6.68;;;;;;;-4.04;81.85;146333.47;5043359;28;20183;-61
2022/12/18 08:17:31;;;;;;;7.05;6.07;;;;;;;-3.99;82.61;146344.84;5034362;28;20061;-62
2022/12/18 08:19:57;;;;;;;8.57;6.22;;;;;;;-3.86;81.73;146376.56;5026727;28;20022;-63
2022/12/18 08:22:22;;;;;;;8.35;6.93;;;;;;;-3.95;81.26;146353.75;5036107;28;20018;-63
2022/12/18 08:24:48;;;;;;;8.35;6.40;;;;;;;-3.91;82.56;146363.88;5041053;28;20028;-62
2022/12/18 08:27:13;;;;;;;7.78;6.32;;;;;;;-3.94;82.47;146357.53;5033331;28;20033;-62
2022/12/18 08:29:39;;;;;;;7.75;6.40;;;;;;;-3.87;81.71;146374.03;5042442;28;20029;-62
2022/12/18 08:32:04;;;;;;;7.35;5.85;;;;;;;-3.78;82.19;146396.81;5038402;28;20061;-63
2022/12/18 08:34:30;;;;;;;7.05;6.35;;;;;;;-3.84;82.43;146381.63;5042445;28;20026;-62
2022/12/18 08:36:56;;;;;;;8.98;6.38;;;;;;;-3.60;82.83;146439.94;5023225;28;20117;-62
2022/12/18 08:39:21;;;;;;;9.88;6.68;;;;;;;-3.55;82.59;146453.88;5023079;28;20049;-64
2022/12/18 08:44:37;;;;;;;8.30;6.68;;;;;;;-3.53;83.15;146457.66;5032697;28;20068;-62
2022/12/18 08:44:38;;;;;;;7.85;6.75;;;;;;;-3.51;82.39;146463.97;5037597;28;20371;-63
2022/12/18 08:47:08;;;;;;;11.50;7.13;;;;;;;-3.46;82.31;146475.41;5041817;28;20071;-64
2022/12/18 08:49:34;;;;;;;10.52;6.68;;;;;;;-3.59;82.54;146442.44;5042300;28;20075;-63
2022/12/18 08:52:00;;;;;;;10.27;6.43;;;;;;;-3.38;82.73;146495.66;5022583;28;20033;-63
2022/12/18 08:54:26;;;;;;;9.73;6.65;;;;;;;-3.46;82.15;146475.41;5037747;28;20032;-62
2022/12/18 08:56:52;;;;;;;10.07;6.63;;;;;;;-3.65;82.15;146428.47;5042197;28;20052;-63
2022/12/18 08:59:18;;;;;;;9.00;6.70;;;;;;;-3.38;83.15;146495.66;5036560;28;20058;-63
2022/12/18 09:01:45;;;;;;;10.75;6.85;;;;;;;-3.24;83.46;146528.63;5029759;28;20036;-62
2022/12/18 09:04:10;;;;;;;8.10;6.05;;;;;;;-3.18;83.23;146543.84;5039170;28;20044;-62
2022/12/18 09:06:36;;;;;;;8.38;6.38;;;;;;;-3.45;81.36;146476.66;5041995;28;20049;-62
2022/12/18 09:09:03;;;;;;;7.78;6.28;;;;;;;-3.45;82.50;146477.91;5041680;28;20053;-62
2022/12/18 09:11:30;;;;;;;8.00;6.22;;;;;;;-3.62;83.41;146434.81;5034584;28;20337;-62
2022/12/18 09:13:56;;;;;;;8.93;6.72;;;;;;;-3.37;83.23;146496.94;5022575;28;20112;-63
2022/12/18 09:16:23;;;;;;;7.95;6.07;;;;;;;-3.33;82.73;146508.34;5023542;28;20045;-63
2022/12/18 09:18:49;;;;;;;8.68;6.78;;;;;;;-3.34;82.65;146504.53;5041917;28;20035;-62
2022/12/18 09:21:23;;;;;;;7.38;6.00;;;;;;;-3.35;82.65;146503.28;5028837;28;20209;-63
2022/12/18 09:23:50;;;;;;;7.32;5.85;;;;;;;-3.28;82.66;146518.50;5031011;28;20026;-63
2022/12/18 09:26:16;;;;;;;9.07;6.40;;;;;;;-3.20;82.61;146540.03;5032913;28;20083;-63
2022/12/18 09:28:42;;;;;;;7.95;5.53;;;;;;;-3.20;82.69;146538.78;5043637;28;20313;-66
2022/12/18 09:31:09;;;;;;;9.48;6.47;;;;;;;-3.19;82.87;146542.59;5026321;28;20030;-63
2022/12/18 09:33:37;;;;;;;8.50;6.00;;;;;;;-3.44;82.61;146479.19;5034748;28;20025;-62
2022/12/18 09:36:04;;;;;;;8.18;5.85;;;;;;;-3.26;83.33;146523.53;5034248;28;20026;-63
2022/12/18 09:38:30;;;;;;;8.63;6.22;;;;;;;-3.31;82.93;146513.44;5037896;28;20030;-61
2022/12/18 09:41:24;;;;;;;8.30;6.07;;;;;;;-3.15;82.80;146551.44;5025982;28;20318;-62
2022/12/18 09:43:53;;;;;;;6.80;5.60;;;;;;;-3.45;82.26;146476.66;5034159;28;20033;-63
2022/12/18 09:46:26;;;;;;;8.30;5.80;;;;;;;-3.43;82.55;146483.00;5037391;28;20290;-63
2022/12/18 09:48:57;;;;;;;6.72;5.50;;;;;;;-3.31;82.89;146513.44;5041277;28;20037;-63
2022/12/18 09:51:44;;;;;;;8.73;5.90;;;;;;;-3.14;83.12;146555.22;5025741;28;20072;-63
2022/12/18 09:54:19;;;;;;;6.18;5.45;;;;;;;-3.23;83.18;146531.19;5025903;28;20022;-62
2022/12/18 09:56:45;;;;;;;7.88;5.20;;;;;;;-3.26;82.28;146523.53;5040657;28;20108;-62
2022/12/18 09:59:22;;;;;;;8.05;5.63;;;;;;;-3.17;81.79;146547.63;5045727;28;20030;-61
2022/12/18 10:01:48;;;;;;;7.93;5.50;;;;;;;-3.33;82.71;146508.34;5037015;28;20025;-63
2022/12/18 10:04:13;;;;;;;5.95;4.57;;;;;;;-3.21;82.79;146537.47;5037276;28;20048;-63
2022/12/18 10:06:48;;;;;;;7.88;6.47;;;;;;;-3.27;82.98;146521.03;5035784;28;20025;-62
2022/12/18 10:09:42;;;;;;;7.13;5.40;;;;;;;-3.39;83.44;146493.16;5032612;28;20034;-65
2022/12/18 10:12:13;;;;;;;7.30;5.25;;;;;;;-3.37;82.79;146498.19;5028325;28;20324;-63
2022/12/18 10:14:50;;;;;;;6.57;5.18;;;;;;;-3.27;82.94;146521.03;5033070;28;20120;-63
2022/12/18 10:17:35;;;;;;;6.55;5.10;;;;;;;-3.35;83.30;146502.00;5040742;28;20227;-63
2022/12/18 10:20:16;;;;;;;5.57;4.50;;;;;;;-3.23;82.19;146532.44;5042482;28;20309;-63
2022/12/18 10:22:50;;;;;;;7.53;5.20;;;;;;;-3.37;82.35;146498.19;5029483;28;20036;-63
2022/12/18 10:25:37;;;;;;;6.63;4.70;;;;;;;-3.23;82.14;146531.19;5043304;28;20229;-63
2022/12/18 10:28:17;;;;;;;8.82;5.38;;;;;;;-3.14;82.64;146553.97;5041476;28;20029;-63
2022/12/18 10:30:43;;;;;;;7.88;5.47;;;;;;;-3.23;81.80;146532.44;5031905;28;20029;-63
2022/12/18 10:33:19;;;;;;;6.50;4.70;;;;;;;-3.34;81.80;146505.78;5033381;28;20306;-63
2022/12/18 10:35:46;;;;;;;7.20;5.38;;;;;;;-3.17;83.56;146547.63;5023648;28;20237;-64
2022/12/18 10:38:12;;;;;;;7.20;5.82;;;;;;;-3.08;82.45;146569.19;5027395;28;20257;-63
2022/12/18 10:40:58;;;;;;;6.28;5.25;;;;;;;-3.01;82.32;146585.69;5038631;28;20026;-62
2022/12/18 10:43:24;;;;;;;7.13;5.40;;;;;;;-3.09;81.98;146565.38;5041379;28;20097;-61
2022/12/18 10:46:02;;;;;;;5.93;4.88;;;;;;;-3.26;82.63;146523.53;5029931;28;20203;-62
2022/12/18 10:48:29;;;;;;;7.95;5.45;;;;;;;-3.20;83.57;146538.78;5030152;28;20298;-63
2022/12/18 10:50:55;;;;;;;7.80;5.63;;;;;;;-3.27;83.89;146521.03;5024680;28;20056;-61
2022/12/18 10:53:27;;;;;;;7.30;5.68;;;;;;;-3.17;83.22;146546.38;5030391;28;20029;-62
2022/12/18 10:55:56;;;;;;;7.25;5.57;;;;;;;-3.50;84.18;146466.50;5044612;28;20037;-62
2022/12/18 10:58:33;;;;;;;6.50;5.10;;;;;;;-4.60;83.31;146194.13;5044961;28;20026;-63
2022/12/18 11:01:15;;;;;;;6.32;5.20;;;;;;;-3.49;84.24;146469.06;5027613;28;20040;-64
2022/12/18 11:04:01;;;;;;;5.68;4.35;;;;;;;-3.68;84.50;146422.19;5044110;28;20052;-63
2022/12/18 11:06:27;;;;;;;6.45;5.35;;;;;;;-3.63;83.87;146433.56;5041548;28;20056;-62
2022/12/18 11:09:19;;;;;;;6.30;5.00;;;;;;;-3.38;84.17;146495.66;5041188;28;20353;-62
2022/12/18 11:11:53;;;;;;;9.60;4.97;;;;;;;-3.53;84.34;146457.66;5032497;28;20075;-61
2022/12/18 11:14:25;;;;;;;7.10;5.93;;;;;;;-3.56;84.84;146450.03;5039475;28;20026;-62
2022/12/18 11:16:52;;;;;;;7.50;5.70;;;;;;;-3.50;85.38;146465.25;5024190;28;20053;-64
2022/12/18 11:19:26;;;;;;;8.15;5.75;;;;;;;-3.40;84.48;146489.34;5024625;28;20337;-62
2022/12/18 11:21:51;;;;;;;7.20;5.07;;;;;;;-3.49;84.41;146467.81;5038711;28;20306;-62
2022/12/18 11:24:29;;;;;;;7.03;5.22;;;;;;;-3.37;84.54;146498.19;5032610;28;20048;-62
2022/12/18 11:26:58;;;;;;;6.55;5.05;;;;;;;-3.51;84.58;146463.97;5034551;28;20076;-63
2022/12/18 11:29:32;;;;;;;9.23;5.63;;;;;;;-3.42;83.61;146484.25;5033366;28;20049;-63
2022/12/18 11:32:35;;;;;;;9.50;5.60;;;;;;;-3.46;84.00;146475.41;5025596;28;20065;-63
2022/12/18 11:35:36;;;;;;;7.75;4.97;;;;;;;-3.54;84.67;146456.38;5041518;28;20029;-62
2022/12/18 11:38:17;;;;;;;8.30;5.38;;;;;;;-3.48;84.74;146470.31;5026322;28;20084;-62